sensor_id;sensor_type;location;lat;lon;timestamp;temperature;humidity
27114;DHT22;14648;49.730;8.614;2023-12-20T00:01:35;6.60;68.70
27114;DHT22;14648;49.730;8.614;2023-12-20T00:04:02;6.60;68.70
27114;DHT22;14648;49.730;8.614;2023-12-20T00:06:29;6.60;68.70
27114;DHT22;14648;49.730;8.614;2023-12-20T00:08:55;6.60;68.70
27114;DHT22;14648;49.730;8.614;2023-12-20T00:11:21;6.60;68.80
27114;DHT22;14648;49.730;8.614;2023-12-20T00:13:46;6.50;69.60
27114;DHT22;14648;49.730;8.614;2023-12-20T00:16:12;6.50;68.90
27114;DHT22;14648;49.730;8.614;2023-12-20T00:18:38;6.50;68.90
27114;DHT22;14648;49.730;8.614;2023-12-20T00:21:04;6.50;69.00
27114;DHT22;14648;49.730;8.614;2023-12-20T00:23:29;6.50;68.90
27114;DHT22;14648;49.730;8.614;2023-12-20T00:25:55;6.50;69.00
27114;DHT22;14648;49.730;8.614;2023-12-20T00:28:21;6.50;69.00
27114;DHT22;14648;49.730;8.614;2023-12-20T00:30:48;6.50;69.10
27114;DHT22;14648;49.730;8.614;2023-12-20T00:33:13;6.50;69.10
27114;DHT22;14648;49.730;8.614;2023-12-20T00:35:39;6.50;69.20
27114;DHT22;14648;49.730;8.614;2023-12-20T00:38:05;6.50;69.20
27114;DHT22;14648;49.730;8.614;2023-12-20T00:40:32;6.50;69.20
27114;DHT22;14648;49.730;8.614;2023-12-20T00:42:58;6.50;69.20
27114;DHT22;14648;49.730;8.614;2023-12-20T00:45:24;6.50;69.30
27114;DHT22;14648;49.730;8.614;2023-12-20T00:47:50;6.50;69.40
27114;DHT22;14648;49.730;8.614;2023-12-20T00:50:16;6.50;69.40
27114;DHT22;14648;49.730;8.614;2023-12-20T00:52:41;6.50;69.40
27114;DHT22;14648;49.730;8.614;2023-12-20T00:55:07;6.40;69.30
27114;DHT22;14648;49.730;8.614;2023-12-20T00:57:33;6.40;69.30
27114;DHT22;14648;49.730;8.614;2023-12-20T00:59:59;6.40;69.40
27114;DHT22;14648;49.730;8.614;2023-12-20T01:02:25;6.50;69.50
27114;DHT22;14648;49.730;8.614;2023-12-20T01:04:51;6.40;69.40
27114;DHT22;14648;49.730;8.614;2023-12-20T01:07:16;6.40;69.40
27114;DHT22;14648;49.730;8.614;2023-12-20T01:09:42;6.40;69.40
27114;DHT22;14648;49.730;8.614;2023-12-20T01:12:08;6.40;69.50
27114;DHT22;14648;49.730;8.614;2023-12-20T01:14:34;6.40;69.50
27114;DHT22;14648;49.730;8.614;2023-12-20T01:16:59;6.40;69.40
27114;DHT22;14648;49.730;8.614;2023-12-20T01:19:26;6.40;69.50
27114;DHT22;14648;49.730;8.614;2023-12-20T01:21:53;6.40;69.50
27114;DHT22;14648;49.730;8.614;2023-12-20T01:24:19;6.40;69.60
27114;DHT22;14648;49.730;8.614;2023-12-20T01:26:48;6.30;69.60
27114;DHT22;14648;49.730;8.614;2023-12-20T01:29:13;6.30;69.60
27114;DHT22;14648;49.730;8.614;2023-12-20T01:31:40;6.30;69.60
27114;DHT22;14648;49.730;8.614;2023-12-20T01:34:06;6.30;69.70
27114;DHT22;14648;49.730;8.614;2023-12-20T01:36:32;6.30;69.60
27114;DHT22;14648;49.730;8.614;2023-12-20T01:38:57;6.30;69.60
27114;DHT22;14648;49.730;8.614;2023-12-20T01:41:23;6.30;69.70
27114;DHT22;14648;49.730;8.614;2023-12-20T01:43:49;6.40;69.60
27114;DHT22;14648;49.730;8.614;2023-12-20T01:46:15;6.30;69.70
27114;DHT22;14648;49.730;8.614;2023-12-20T01:48:41;6.40;69.60
27114;DHT22;14648;49.730;8.614;2023-12-20T01:51:07;6.30;69.70
27114;DHT22;14648;49.730;8.614;2023-12-20T01:53:34;6.30;69.70
27114;DHT22;14648;49.730;8.614;2023-12-20T01:56:00;6.30;69.70
27114;DHT22;14648;49.730;8.614;2023-12-20T01:58:27;6.30;69.80
27114;DHT22;14648;49.730;8.614;2023-12-20T02:00:53;6.30;69.70
27114;DHT22;14648;49.730;8.614;2023-12-20T02:03:20;6.30;69.70
27114;DHT22;14648;49.730;8.614;2023-12-20T02:05:47;6.30;69.70
27114;DHT22;14648;49.730;8.614;2023-12-20T02:08:13;6.30;69.70
27114;DHT22;14648;49.730;8.614;2023-12-20T02:10:39;6.30;69.70
27114;DHT22;14648;49.730;8.614;2023-12-20T02:13:06;6.30;69.70
27114;DHT22;14648;49.730;8.614;2023-12-20T02:15:32;6.20;69.60
27114;DHT22;14648;49.730;8.614;2023-12-20T02:17:58;6.30;69.70
27114;DHT22;14648;49.730;8.614;2023-12-20T02:20:24;6.30;70.60
27114;DHT22;14648;49.730;8.614;2023-12-20T02:22:50;6.30;69.80
27114;DHT22;14648;49.730;8.614;2023-12-20T02:25:15;6.20;69.70
27114;DHT22;14648;49.730;8.614;2023-12-20T02:27:41;6.20;69.70
27114;DHT22;14648;49.730;8.614;2023-12-20T02:30:07;6.30;69.80
27114;DHT22;14648;49.730;8.614;2023-12-20T02:32:33;6.30;69.80
27114;DHT22;14648;49.730;8.614;2023-12-20T02:34:59;6.30;69.80
27114;DHT22;14648;49.730;8.614;2023-12-20T02:37:25;6.30;69.80
27114;DHT22;14648;49.730;8.614;2023-12-20T02:39:51;6.30;69.70
27114;DHT22;14648;49.730;8.614;2023-12-20T02:42:16;6.30;69.80
27114;DHT22;14648;49.730;8.614;2023-12-20T02:44:42;6.30;69.70
27114;DHT22;14648;49.730;8.614;2023-12-20T02:47:08;6.30;69.80
27114;DHT22;14648;49.730;8.614;2023-12-20T02:49:33;6.20;69.70
27114;DHT22;14648;49.730;8.614;2023-12-20T02:51:59;6.20;69.70
27114;DHT22;14648;49.730;8.614;2023-12-20T02:54:25;6.30;69.80
27114;DHT22;14648;49.730;8.614;2023-12-20T02:56:50;6.30;69.80
27114;DHT22;14648;49.730;8.614;2023-12-20T02:59:16;6.20;69.70
27114;DHT22;14648;49.730;8.614;2023-12-20T03:01:46;6.20;69.70
27114;DHT22;14648;49.730;8.614;2023-12-20T03:04:12;6.20;69.70
27114;DHT22;14648;49.730;8.614;2023-12-20T03:06:38;6.20;69.70
27114;DHT22;14648;49.730;8.614;2023-12-20T03:09:04;6.20;69.70
27114;DHT22;14648;49.730;8.614;2023-12-20T03:11:30;6.20;69.70
27114;DHT22;14648;49.730;8.614;2023-12-20T03:13:57;6.20;69.70
27114;DHT22;14648;49.730;8.614;2023-12-20T03:16:23;6.20;69.70
27114;DHT22;14648;49.730;8.614;2023-12-20T03:18:49;6.20;69.60
27114;DHT22;14648;49.730;8.614;2023-12-20T03:21:15;6.20;69.70
27114;DHT22;14648;49.730;8.614;2023-12-20T03:23:41;6.20;69.70
27114;DHT22;14648;49.730;8.614;2023-12-20T03:26:07;6.20;69.80
27114;DHT22;14648;49.730;8.614;2023-12-20T03:28:33;6.20;69.80
27114;DHT22;14648;49.730;8.614;2023-12-20T03:30:59;6.30;69.90
27114;DHT22;14648;49.730;8.614;2023-12-20T03:33:25;6.30;69.90
27114;DHT22;14648;49.730;8.614;2023-12-20T03:35:51;6.30;69.90
27114;DHT22;14648;49.730;8.614;2023-12-20T03:38:17;6.30;69.90
27114;DHT22;14648;49.730;8.614;2023-12-20T03:40:43;6.30;69.90
27114;DHT22;14648;49.730;8.614;2023-12-20T03:43:08;6.30;69.90
27114;DHT22;14648;49.730;8.614;2023-12-20T03:45:34;6.30;69.90
27114;DHT22;14648;49.730;8.614;2023-12-20T03:48:00;6.30;69.90
27114;DHT22;14648;49.730;8.614;2023-12-20T03:50:26;6.30;70.00
27114;DHT22;14648;49.730;8.614;2023-12-20T03:52:52;6.30;69.90
27114;DHT22;14648;49.730;8.614;2023-12-20T03:55:18;6.30;69.90
27114;DHT22;14648;49.730;8.614;2023-12-20T03:57:44;6.30;69.90
27114;DHT22;14648;49.730;8.614;2023-12-20T04:00:10;6.30;70.00
27114;DHT22;14648;49.730;8.614;2023-12-20T04:02:37;6.30;70.00
27114;DHT22;14648;49.730;8.614;2023-12-20T04:05:04;6.30;70.00
27114;DHT22;14648;49.730;8.614;2023-12-20T04:07:30;6.40;70.00
27114;DHT22;14648;49.730;8.614;2023-12-20T04:09:56;6.40;70.00
27114;DHT22;14648;49.730;8.614;2023-12-20T04:12:22;6.30;70.00
27114;DHT22;14648;49.730;8.614;2023-12-20T04:14:48;6.40;70.00
27114;DHT22;14648;49.730;8.614;2023-12-20T04:17:15;6.40;70.70
27114;DHT22;14648;49.730;8.614;2023-12-20T04:19:45;6.40;70.00
27114;DHT22;14648;49.730;8.614;2023-12-20T04:22:10;6.40;70.10
27114;DHT22;14648;49.730;8.614;2023-12-20T04:24:36;6.40;70.10
27114;DHT22;14648;49.730;8.614;2023-12-20T04:27:02;6.40;70.10
27114;DHT22;14648;49.730;8.614;2023-12-20T04:29:28;6.40;70.20
27114;DHT22;14648;49.730;8.614;2023-12-20T04:31:54;6.40;70.20
27114;DHT22;14648;49.730;8.614;2023-12-20T04:34:20;6.40;70.20
27114;DHT22;14648;49.730;8.614;2023-12-20T04:36:47;6.40;70.10
27114;DHT22;14648;49.730;8.614;2023-12-20T04:39:13;6.40;70.10
27114;DHT22;14648;49.730;8.614;2023-12-20T04:41:40;6.50;70.20
27114;DHT22;14648;49.730;8.614;2023-12-20T04:44:06;6.50;70.20
27114;DHT22;14648;49.730;8.614;2023-12-20T04:46:32;6.50;70.20
27114;DHT22;14648;49.730;8.614;2023-12-20T04:48:58;6.50;70.20
27114;DHT22;14648;49.730;8.614;2023-12-20T04:51:24;6.50;70.20
27114;DHT22;14648;49.730;8.614;2023-12-20T04:53:50;6.50;70.20
27114;DHT22;14648;49.730;8.614;2023-12-20T04:56:15;6.50;70.20
27114;DHT22;14648;49.730;8.614;2023-12-20T04:58:42;6.50;70.30
27114;DHT22;14648;49.730;8.614;2023-12-20T05:01:09;6.50;70.30
27114;DHT22;14648;49.730;8.614;2023-12-20T05:03:35;6.50;70.30
27114;DHT22;14648;49.730;8.614;2023-12-20T05:06:01;6.50;70.40
27114;DHT22;14648;49.730;8.614;2023-12-20T05:08:27;6.50;70.40
27114;DHT22;14648;49.730;8.614;2023-12-20T05:10:56;6.60;70.30
27114;DHT22;14648;49.730;8.614;2023-12-20T05:13:22;6.60;70.40
27114;DHT22;14648;49.730;8.614;2023-12-20T05:15:48;6.60;70.30
27114;DHT22;14648;49.730;8.614;2023-12-20T05:18:14;6.70;70.40
27114;DHT22;14648;49.730;8.614;2023-12-20T05:20:40;6.60;70.20
27114;DHT22;14648;49.730;8.614;2023-12-20T05:23:06;6.70;70.40
27114;DHT22;14648;49.730;8.614;2023-12-20T05:25:32;6.70;70.40
27114;DHT22;14648;49.730;8.614;2023-12-20T05:27:58;6.70;70.40
27114;DHT22;14648;49.730;8.614;2023-12-20T05:30:24;6.70;70.50
27114;DHT22;14648;49.730;8.614;2023-12-20T05:32:50;6.70;70.60
27114;DHT22;14648;49.730;8.614;2023-12-20T05:35:16;6.80;70.60
27114;DHT22;14648;49.730;8.614;2023-12-20T05:37:42;6.70;70.60
27114;DHT22;14648;49.730;8.614;2023-12-20T05:40:08;6.80;70.60
27114;DHT22;14648;49.730;8.614;2023-12-20T05:42:37;6.80;70.60
27114;DHT22;14648;49.730;8.614;2023-12-20T05:45:04;6.80;70.70
27114;DHT22;14648;49.730;8.614;2023-12-20T05:47:31;6.80;70.60
27114;DHT22;14648;49.730;8.614;2023-12-20T05:49:57;6.80;70.60
27114;DHT22;14648;49.730;8.614;2023-12-20T05:52:23;6.80;70.70
27114;DHT22;14648;49.730;8.614;2023-12-20T05:54:48;6.80;70.80
27114;DHT22;14648;49.730;8.614;2023-12-20T05:57:14;6.80;70.80
27114;DHT22;14648;49.730;8.614;2023-12-20T05:59:40;6.70;70.70
27114;DHT22;14648;49.730;8.614;2023-12-20T06:02:06;6.70;70.80
27114;DHT22;14648;49.730;8.614;2023-12-20T06:04:32;6.70;70.80
27114;DHT22;14648;49.730;8.614;2023-12-20T06:06:58;6.60;70.80
27114;DHT22;14648;49.730;8.614;2023-12-20T06:09:26;6.60;70.70
27114;DHT22;14648;49.730;8.614;2023-12-20T06:11:52;6.60;70.70
27114;DHT22;14648;49.730;8.614;2023-12-20T06:14:18;6.60;70.60
27114;DHT22;14648;49.730;8.614;2023-12-20T06:16:45;6.50;70.50
27114;DHT22;14648;49.730;8.614;2023-12-20T06:19:11;6.50;70.60
27114;DHT22;14648;49.730;8.614;2023-12-20T06:21:37;6.40;70.40
27114;DHT22;14648;49.730;8.614;2023-12-20T06:24:03;6.40;70.50
27114;DHT22;14648;49.730;8.614;2023-12-20T06:26:29;6.40;70.60
27114;DHT22;14648;49.730;8.614;2023-12-20T06:28:55;6.40;70.60
27114;DHT22;14648;49.730;8.614;2023-12-20T06:31:21;6.40;70.70
27114;DHT22;14648;49.730;8.614;2023-12-20T06:33:46;6.40;70.70
27114;DHT22;14648;49.730;8.614;2023-12-20T06:36:15;6.40;70.40
27114;DHT22;14648;49.730;8.614;2023-12-20T06:38:41;6.50;70.40
27114;DHT22;14648;49.730;8.614;2023-12-20T06:41:13;6.40;70.10
27114;DHT22;14648;49.730;8.614;2023-12-20T06:43:39;6.40;70.00
27114;DHT22;14648;49.730;8.614;2023-12-20T06:46:06;6.40;69.90
27114;DHT22;14648;49.730;8.614;2023-12-20T06:48:32;6.30;69.80
27114;DHT22;14648;49.730;8.614;2023-12-20T06:51:00;6.30;70.00
27114;DHT22;14648;49.730;8.614;2023-12-20T06:53:29;6.20;69.80
27114;DHT22;14648;49.730;8.614;2023-12-20T06:55:55;6.20;69.90
27114;DHT22;14648;49.730;8.614;2023-12-20T06:58:24;6.10;70.00
27114;DHT22;14648;49.730;8.614;2023-12-20T07:00:50;6.00;70.00
27114;DHT22;14648;49.730;8.614;2023-12-20T07:03:17;6.00;70.00
27114;DHT22;14648;49.730;8.614;2023-12-20T07:05:43;6.00;69.90
27114;DHT22;14648;49.730;8.614;2023-12-20T07:08:09;6.00;69.90
27114;DHT22;14648;49.730;8.614;2023-12-20T07:10:36;5.90;69.70
27114;DHT22;14648;49.730;8.614;2023-12-20T07:13:02;5.90;69.60
27114;DHT22;14648;49.730;8.614;2023-12-20T07:15:28;5.90;69.60
27114;DHT22;14648;49.730;8.614;2023-12-20T07:17:55;5.90;69.50
27114;DHT22;14648;49.730;8.614;2023-12-20T07:20:20;5.90;69.50
27114;DHT22;14648;49.730;8.614;2023-12-20T07:22:47;5.90;69.40
27114;DHT22;14648;49.730;8.614;2023-12-20T07:25:12;5.90;69.40
27114;DHT22;14648;49.730;8.614;2023-12-20T07:27:38;5.90;69.20
27114;DHT22;14648;49.730;8.614;2023-12-20T07:30:04;5.90;69.20
27114;DHT22;14648;49.730;8.614;2023-12-20T07:32:30;5.90;69.30
27114;DHT22;14648;49.730;8.614;2023-12-20T07:34:57;6.00;69.10
27114;DHT22;14648;49.730;8.614;2023-12-20T07:37:23;6.00;68.90
27114;DHT22;14648;49.730;8.614;2023-12-20T07:39:50;6.10;68.90
27114;DHT22;14648;49.730;8.614;2023-12-20T07:42:15;6.10;69.70
27114;DHT22;14648;49.730;8.614;2023-12-20T07:44:41;6.20;68.70
27114;DHT22;14648;49.730;8.614;2023-12-20T07:47:07;6.20;68.70
27114;DHT22;14648;49.730;8.614;2023-12-20T07:49:33;6.20;68.70
27114;DHT22;14648;49.730;8.614;2023-12-20T07:51:59;6.20;68.60
27114;DHT22;14648;49.730;8.614;2023-12-20T07:54:25;6.30;68.90
27114;DHT22;14648;49.730;8.614;2023-12-20T07:56:50;6.20;68.70
27114;DHT22;14648;49.730;8.614;2023-12-20T07:59:16;6.20;68.70
27114;DHT22;14648;49.730;8.614;2023-12-20T08:01:42;6.30;68.90
27114;DHT22;14648;49.730;8.614;2023-12-20T08:04:08;6.30;69.00
27114;DHT22;14648;49.730;8.614;2023-12-20T08:06:34;6.30;69.00
27114;DHT22;14648;49.730;8.614;2023-12-20T08:08:59;6.40;68.90
27114;DHT22;14648;49.730;8.614;2023-12-20T08:11:25;6.40;68.90
27114;DHT22;14648;49.730;8.614;2023-12-20T08:13:51;6.40;68.80
27114;DHT22;14648;49.730;8.614;2023-12-20T08:16:17;6.50;68.80
27114;DHT22;14648;49.730;8.614;2023-12-20T08:18:43;6.40;68.60
27114;DHT22;14648;49.730;8.614;2023-12-20T08:21:09;6.50;68.70
27114;DHT22;14648;49.730;8.614;2023-12-20T08:23:35;6.40;68.50
27114;DHT22;14648;49.730;8.614;2023-12-20T08:26:07;6.50;68.50
27114;DHT22;14648;49.730;8.614;2023-12-20T08:28:34;6.40;68.30
27114;DHT22;14648;49.730;8.614;2023-12-20T08:31:00;6.40;68.40
27114;DHT22;14648;49.730;8.614;2023-12-20T08:33:26;6.40;69.20
27114;DHT22;14648;49.730;8.614;2023-12-20T08:35:52;6.40;68.40
27114;DHT22;14648;49.730;8.614;2023-12-20T08:38:17;6.40;68.50
27114;DHT22;14648;49.730;8.614;2023-12-20T08:40:44;6.40;68.60
27114;DHT22;14648;49.730;8.614;2023-12-20T08:43:10;6.40;68.60
27114;DHT22;14648;49.730;8.614;2023-12-20T08:45:36;6.40;68.60
27114;DHT22;14648;49.730;8.614;2023-12-20T08:48:04;6.40;68.70
27114;DHT22;14648;49.730;8.614;2023-12-20T08:50:30;6.40;68.70
27114;DHT22;14648;49.730;8.614;2023-12-20T08:52:56;6.40;68.70
27114;DHT22;14648;49.730;8.614;2023-12-20T08:55:22;6.40;68.80
27114;DHT22;14648;49.730;8.614;2023-12-20T08:57:48;6.40;68.80
27114;DHT22;14648;49.730;8.614;2023-12-20T09:00:14;6.50;68.80
27114;DHT22;14648;49.730;8.614;2023-12-20T09:02:41;6.50;68.70
27114;DHT22;14648;49.730;8.614;2023-12-20T09:05:07;6.50;68.70
27114;DHT22;14648;49.730;8.614;2023-12-20T09:07:33;6.50;68.80
27114;DHT22;14648;49.730;8.614;2023-12-20T09:09:59;6.50;68.80
27114;DHT22;14648;49.730;8.614;2023-12-20T09:12:24;6.50;68.80
27114;DHT22;14648;49.730;8.614;2023-12-20T09:14:51;6.50;68.80
27114;DHT22;14648;49.730;8.614;2023-12-20T09:17:18;6.50;69.00
27114;DHT22;14648;49.730;8.614;2023-12-20T09:19:44;6.50;69.10
27114;DHT22;14648;49.730;8.614;2023-12-20T09:22:11;6.50;69.00
27114;DHT22;14648;49.730;8.614;2023-12-20T09:24:37;6.50;69.10
27114;DHT22;14648;49.730;8.614;2023-12-20T09:27:04;6.60;69.10
27114;DHT22;14648;49.730;8.614;2023-12-20T09:29:31;6.60;69.00
27114;DHT22;14648;49.730;8.614;2023-12-20T09:31:57;6.60;69.10
27114;DHT22;14648;49.730;8.614;2023-12-20T09:34:25;6.60;69.10
27114;DHT22;14648;49.730;8.614;2023-12-20T09:36:52;6.60;69.10
27114;DHT22;14648;49.730;8.614;2023-12-20T09:39:18;6.60;69.00
27114;DHT22;14648;49.730;8.614;2023-12-20T09:42:05;6.60;69.00
27114;DHT22;14648;49.730;8.614;2023-12-20T09:44:32;6.70;69.10
27114;DHT22;14648;49.730;8.614;2023-12-20T09:47:03;6.60;68.80
27114;DHT22;14648;49.730;8.614;2023-12-20T09:49:30;6.70;68.90
27114;DHT22;14648;49.730;8.614;2023-12-20T09:51:56;6.70;68.90
27114;DHT22;14648;49.730;8.614;2023-12-20T09:54:23;6.70;68.90
27114;DHT22;14648;49.730;8.614;2023-12-20T09:56:49;6.70;68.90
27114;DHT22;14648;49.730;8.614;2023-12-20T09:59:15;6.80;68.90
27114;DHT22;14648;49.730;8.614;2023-12-20T10:01:42;6.80;68.90
27114;DHT22;14648;49.730;8.614;2023-12-20T10:04:09;6.80;69.00
27114;DHT22;14648;49.730;8.614;2023-12-20T10:06:42;6.80;69.00
27114;DHT22;14648;49.730;8.614;2023-12-20T10:09:09;6.80;69.00
27114;DHT22;14648;49.730;8.614;2023-12-20T10:11:36;6.80;68.90
27114;DHT22;14648;49.730;8.614;2023-12-20T10:14:07;6.80;68.90
27114;DHT22;14648;49.730;8.614;2023-12-20T10:16:33;6.90;69.10
27114;DHT22;14648;49.730;8.614;2023-12-20T10:19:00;6.80;68.90
27114;DHT22;14648;49.730;8.614;2023-12-20T10:21:29;6.90;69.00
27114;DHT22;14648;49.730;8.614;2023-12-20T10:23:56;6.90;68.90
27114;DHT22;14648;49.730;8.614;2023-12-20T10:26:23;6.90;68.90
27114;DHT22;14648;49.730;8.614;2023-12-20T10:28:51;6.90;68.80
27114;DHT22;14648;49.730;8.614;2023-12-20T10:31:34;7.00;68.90
27114;DHT22;14648;49.730;8.614;2023-12-20T10:34:02;7.00;68.90
27114;DHT22;14648;49.730;8.614;2023-12-20T10:36:29;7.00;68.80
27114;DHT22;14648;49.730;8.614;2023-12-20T10:38:57;7.10;68.90
27114;DHT22;14648;49.730;8.614;2023-12-20T10:41:27;7.10;68.80
27114;DHT22;14648;49.730;8.614;2023-12-20T10:44:04;7.10;68.80
27114;DHT22;14648;49.730;8.614;2023-12-20T10:46:33;7.10;68.70
27114;DHT22;14648;49.730;8.614;2023-12-20T10:49:02;7.10;68.70
27114;DHT22;14648;49.730;8.614;2023-12-20T10:51:28;7.10;68.80
27114;DHT22;14648;49.730;8.614;2023-12-20T10:53:57;7.20;68.80
27114;DHT22;14648;49.730;8.614;2023-12-20T10:56:23;7.20;68.80
27114;DHT22;14648;49.730;8.614;2023-12-20T10:58:49;7.20;68.80
27114;DHT22;14648;49.730;8.614;2023-12-20T11:01:17;7.20;68.90
27114;DHT22;14648;49.730;8.614;2023-12-20T11:03:53;7.20;68.80
27114;DHT22;14648;49.730;8.614;2023-12-20T11:06:26;7.30;68.90
27114;DHT22;14648;49.730;8.614;2023-12-20T11:09:10;7.30;68.90
27114;DHT22;14648;49.730;8.614;2023-12-20T11:14:25;7.30;68.80
27114;DHT22;14648;49.730;8.614;2023-12-20T11:17:10;7.30;68.80
27114;DHT22;14648;49.730;8.614;2023-12-20T11:22:29;7.40;68.90
27114;DHT22;14648;49.730;8.614;2023-12-20T11:25:07;7.40;68.80
27114;DHT22;14648;49.730;8.614;2023-12-20T11:27:35;7.40;68.80
27114;DHT22;14648;49.730;8.614;2023-12-20T11:30:10;7.40;68.80
27114;DHT22;14648;49.730;8.614;2023-12-20T11:32:37;7.50;69.00
27114;DHT22;14648;49.730;8.614;2023-12-20T11:37:38;7.50;68.90
27114;DHT22;14648;49.730;8.614;2023-12-20T11:40:12;7.50;68.90
27114;DHT22;14648;49.730;8.614;2023-12-20T11:42:41;7.50;68.90
27114;DHT22;14648;49.730;8.614;2023-12-20T11:45:14;7.60;68.90
27114;DHT22;14648;49.730;8.614;2023-12-20T11:47:46;7.60;68.90
27114;DHT22;14648;49.730;8.614;2023-12-20T11:50:12;7.60;68.90
27114;DHT22;14648;49.730;8.614;2023-12-20T11:52:38;7.60;68.90
27114;DHT22;14648;49.730;8.614;2023-12-20T11:55:04;7.60;68.80
27114;DHT22;14648;49.730;8.614;2023-12-20T11:57:31;7.60;68.80
27114;DHT22;14648;49.730;8.614;2023-12-20T11:59:57;7.70;68.80
27114;DHT22;14648;49.730;8.614;2023-12-20T12:02:23;7.60;68.50
27114;DHT22;14648;49.730;8.614;2023-12-20T12:04:49;7.60;68.40
27114;DHT22;14648;49.730;8.614;2023-12-20T12:07:18;7.60;68.40
27114;DHT22;14648;49.730;8.614;2023-12-20T12:09:44;7.60;68.40
27114;DHT22;14648;49.730;8.614;2023-12-20T12:12:11;7.60;68.50
27114;DHT22;14648;49.730;8.614;2023-12-20T12:14:38;7.60;68.50
27114;DHT22;14648;49.730;8.614;2023-12-20T12:17:10;7.60;68.50
27114;DHT22;14648;49.730;8.614;2023-12-20T12:19:37;7.70;68.50
27114;DHT22;14648;49.730;8.614;2023-12-20T12:22:05;7.60;68.40
27114;DHT22;14648;49.730;8.614;2023-12-20T12:24:41;7.60;68.40
27114;DHT22;14648;49.730;8.614;2023-12-20T12:27:11;7.60;68.40
27114;DHT22;14648;49.730;8.614;2023-12-20T12:29:38;7.60;68.30
27114;DHT22;14648;49.730;8.614;2023-12-20T12:32:08;7.60;68.30
27114;DHT22;14648;49.730;8.614;2023-12-20T12:34:35;7.60;68.30
27114;DHT22;14648;49.730;8.614;2023-12-20T12:37:03;7.60;68.40
27114;DHT22;14648;49.730;8.614;2023-12-20T12:39:29;7.60;68.40
27114;DHT22;14648;49.730;8.614;2023-12-20T12:41:56;7.60;68.40
27114;DHT22;14648;49.730;8.614;2023-12-20T12:44:22;7.60;68.30
27114;DHT22;14648;49.730;8.614;2023-12-20T12:46:51;7.60;68.30
27114;DHT22;14648;49.730;8.614;2023-12-20T12:49:19;7.60;68.20
27114;DHT22;14648;49.730;8.614;2023-12-20T12:51:47;7.60;68.30
27114;DHT22;14648;49.730;8.614;2023-12-20T12:54:12;7.60;68.30
27114;DHT22;14648;49.730;8.614;2023-12-20T12:56:41;7.60;68.10
27114;DHT22;14648;49.730;8.614;2023-12-20T12:59:06;7.60;68.10
27114;DHT22;14648;49.730;8.614;2023-12-20T13:01:32;7.60;68.10
27114;DHT22;14648;49.730;8.614;2023-12-20T13:03:58;7.60;68.00
27114;DHT22;14648;49.730;8.614;2023-12-20T13:06:23;7.60;67.90
27114;DHT22;14648;49.730;8.614;2023-12-20T13:08:49;7.60;67.90
27114;DHT22;14648;49.730;8.614;2023-12-20T13:11:15;7.60;67.90
27114;DHT22;14648;49.730;8.614;2023-12-20T13:13:41;7.60;67.90
27114;DHT22;14648;49.730;8.614;2023-12-20T13:16:07;7.50;67.90
27114;DHT22;14648;49.730;8.614;2023-12-20T13:18:33;7.50;67.90
27114;DHT22;14648;49.730;8.614;2023-12-20T13:20:59;7.60;67.80
27114;DHT22;14648;49.730;8.614;2023-12-20T13:23:25;7.60;67.80
27114;DHT22;14648;49.730;8.614;2023-12-20T13:25:51;7.60;67.80
27114;DHT22;14648;49.730;8.614;2023-12-20T13:28:16;7.60;67.70
27114;DHT22;14648;49.730;8.614;2023-12-20T13:30:43;7.60;67.70
27114;DHT22;14648;49.730;8.614;2023-12-20T13:33:08;7.60;67.70
27114;DHT22;14648;49.730;8.614;2023-12-20T13:35:35;7.60;67.60
27114;DHT22;14648;49.730;8.614;2023-12-20T13:38:01;7.70;67.60
27114;DHT22;14648;49.730;8.614;2023-12-20T13:40:27;7.70;67.70
27114;DHT22;14648;49.730;8.614;2023-12-20T13:42:54;7.70;67.70
27114;DHT22;14648;49.730;8.614;2023-12-20T13:45:20;7.70;67.70
27114;DHT22;14648;49.730;8.614;2023-12-20T13:47:46;7.80;67.50
27114;DHT22;14648;49.730;8.614;2023-12-20T13:50:12;7.80;67.60
27114;DHT22;14648;49.730;8.614;2023-12-20T13:52:41;7.90;67.70
27114;DHT22;14648;49.730;8.614;2023-12-20T13:55:09;7.90;67.60
27114;DHT22;14648;49.730;8.614;2023-12-20T13:57:35;8.00;67.60
27114;DHT22;14648;49.730;8.614;2023-12-20T14:00:04;8.10;67.60
27114;DHT22;14648;49.730;8.614;2023-12-20T14:02:30;8.10;67.50
27114;DHT22;14648;49.730;8.614;2023-12-20T14:04:56;8.10;67.60
27114;DHT22;14648;49.730;8.614;2023-12-20T14:07:22;8.10;67.50
27114;DHT22;14648;49.730;8.614;2023-12-20T14:09:48;8.10;67.70
27114;DHT22;14648;49.730;8.614;2023-12-20T14:12:14;8.20;67.90
27114;DHT22;14648;49.730;8.614;2023-12-20T14:14:40;8.20;67.80
27114;DHT22;14648;49.730;8.614;2023-12-20T14:17:06;8.30;67.90
27114;DHT22;14648;49.730;8.614;2023-12-20T14:19:34;8.30;67.80
27114;DHT22;14648;49.730;8.614;2023-12-20T14:22:00;8.30;67.80
27114;DHT22;14648;49.730;8.614;2023-12-20T14:24:27;8.30;67.80
27114;DHT22;14648;49.730;8.614;2023-12-20T14:26:53;8.30;67.80
27114;DHT22;14648;49.730;8.614;2023-12-20T14:29:19;8.20;67.70
27114;DHT22;14648;49.730;8.614;2023-12-20T14:31:45;8.20;67.70
27114;DHT22;14648;49.730;8.614;2023-12-20T14:34:11;8.20;67.70
27114;DHT22;14648;49.730;8.614;2023-12-20T14:36:37;8.20;67.60
27114;DHT22;14648;49.730;8.614;2023-12-20T14:39:03;8.20;67.60
27114;DHT22;14648;49.730;8.614;2023-12-20T14:41:30;8.10;67.60
27114;DHT22;14648;49.730;8.614;2023-12-20T14:43:56;8.10;67.70
27114;DHT22;14648;49.730;8.614;2023-12-20T14:46:22;8.10;67.50
27114;DHT22;14648;49.730;8.614;2023-12-20T14:48:48;8.10;67.50
27114;DHT22;14648;49.730;8.614;2023-12-20T14:51:15;8.10;67.60
27114;DHT22;14648;49.730;8.614;2023-12-20T14:53:41;8.00;67.40
27114;DHT22;14648;49.730;8.614;2023-12-20T14:56:07;8.10;67.50
27114;DHT22;14648;49.730;8.614;2023-12-20T14:58:33;8.00;67.30
27114;DHT22;14648;49.730;8.614;2023-12-20T15:01:00;8.00;67.30
27114;DHT22;14648;49.730;8.614;2023-12-20T15:03:27;8.10;67.40
27114;DHT22;14648;49.730;8.614;2023-12-20T15:05:54;8.10;67.40
27114;DHT22;14648;49.730;8.614;2023-12-20T15:08:20;8.10;67.40
27114;DHT22;14648;49.730;8.614;2023-12-20T15:10:47;8.10;67.30
27114;DHT22;14648;49.730;8.614;2023-12-20T15:13:12;8.00;67.20
27114;DHT22;14648;49.730;8.614;2023-12-20T15:15:38;8.00;67.10
27114;DHT22;14648;49.730;8.614;2023-12-20T15:18:04;8.00;67.10
27114;DHT22;14648;49.730;8.614;2023-12-20T15:20:30;7.90;67.00
27114;DHT22;14648;49.730;8.614;2023-12-20T15:22:59;7.90;67.10
27114;DHT22;14648;49.730;8.614;2023-12-20T15:25:30;7.90;67.00
27114;DHT22;14648;49.730;8.614;2023-12-20T15:27:56;7.90;67.10
27114;DHT22;14648;49.730;8.614;2023-12-20T15:30:22;7.90;67.00
27114;DHT22;14648;49.730;8.614;2023-12-20T15:32:50;7.80;66.80
27114;DHT22;14648;49.730;8.614;2023-12-20T15:35:16;7.80;66.80
27114;DHT22;14648;49.730;8.614;2023-12-20T15:37:42;7.80;66.80
27114;DHT22;14648;49.730;8.614;2023-12-20T15:40:09;7.80;66.90
27114;DHT22;14648;49.730;8.614;2023-12-20T15:42:39;7.70;66.80
27114;DHT22;14648;49.730;8.614;2023-12-20T15:45:07;7.70;66.80
27114;DHT22;14648;49.730;8.614;2023-12-20T15:47:34;7.70;66.70
27114;DHT22;14648;49.730;8.614;2023-12-20T15:50:02;7.70;66.70